createdAt,value
2018-12-21T00:00:06.802Z,3.90
2018-12-21T00:02:34.633Z,3.67
2018-12-21T00:05:02.375Z,4.10
2018-12-21T00:07:30.257Z,4.10
2018-12-21T00:09:58.006Z,4.10
2018-12-21T00:12:25.884Z,3.60
2018-12-21T00:14:53.768Z,3.03
2018-12-21T00:17:21.426Z,3.93
2018-12-21T00:19:49.596Z,4.20
2018-12-21T00:22:18.080Z,3.50
2018-12-21T00:24:45.881Z,4.10
2018-12-21T00:27:13.601Z,3.57
2018-12-21T00:29:42.361Z,3.20
2018-12-21T00:32:12.997Z,3.67
2018-12-21T00:34:42.733Z,3.43
2018-12-21T00:37:12.438Z,3.00
2018-12-21T00:39:42.472Z,3.70
2018-12-21T00:42:12.108Z,3.93
2018-12-21T00:44:39.882Z,2.63
2018-12-21T00:47:09.450Z,3.10
2018-12-21T00:49:37.251Z,2.63
2018-12-21T00:52:05.573Z,2.70
2018-12-21T00:54:33.543Z,2.33
2018-12-21T00:57:01.327Z,3.70
2018-12-21T00:59:29.215Z,3.10
2018-12-21T01:01:57.076Z,3.00
2018-12-21T01:04:24.809Z,2.70
2018-12-21T01:06:52.530Z,2.73
2018-12-21T01:09:20.628Z,3.30
2018-12-21T01:11:48.359Z,3.60
2018-12-21T01:14:16.261Z,3.30
2018-12-21T01:16:43.934Z,2.77
2018-12-21T01:19:11.689Z,2.73
2018-12-21T01:21:40.355Z,3.03
2018-12-21T01:24:08.252Z,2.23
2018-12-21T01:26:35.958Z,2.10
2018-12-21T01:29:03.933Z,2.10
2018-12-21T01:31:31.799Z,2.83
2018-12-21T01:33:59.572Z,2.90
2018-12-21T01:36:27.345Z,2.97
2018-12-21T01:38:55.417Z,2.50
2018-12-21T01:41:23.360Z,2.57
2018-12-21T01:43:51.231Z,3.20
2018-12-21T01:46:19.109Z,2.77
2018-12-21T01:48:46.787Z,2.97
2018-12-21T01:51:14.788Z,2.20
2018-12-21T01:53:42.841Z,2.10
2018-12-21T01:56:11.336Z,2.00
2018-12-21T01:58:39.064Z,2.23
2018-12-21T02:01:06.784Z,2.80
2018-12-21T02:03:34.562Z,2.30
2018-12-21T02:06:02.269Z,2.13
2018-12-21T02:08:30.103Z,2.27
2018-12-21T02:10:57.881Z,2.57
2018-12-21T02:13:25.648Z,1.90
2018-12-21T02:15:53.436Z,2.57
2018-12-21T02:18:21.317Z,1.93
2018-12-21T02:20:49.064Z,2.30
2018-12-21T02:23:16.782Z,2.07
2018-12-21T02:25:44.684Z,2.00
2018-12-21T02:28:12.503Z,2.10
2018-12-21T02:30:40.271Z,2.57
2018-12-21T02:33:08.083Z,1.83
2018-12-21T02:35:35.859Z,1.63
2018-12-21T02:38:03.601Z,2.10
2018-12-21T02:40:31.426Z,1.60
2018-12-21T02:42:59.145Z,1.40
2018-12-21T02:45:26.988Z,1.30
2018-12-21T02:47:54.672Z,2.13
2018-12-21T02:50:22.576Z,1.70
2018-12-21T02:52:50.465Z,1.40
2018-12-21T02:55:18.180Z,1.53
2018-12-21T02:57:45.973Z,1.50
2018-12-21T03:00:13.740Z,1.60
2018-12-21T03:02:41.468Z,1.30
2018-12-21T03:05:09.309Z,1.60
2018-12-21T03:07:37.091Z,2.03
2018-12-21T03:10:07.001Z,1.30
2018-12-21T03:12:34.842Z,1.67
2018-12-21T03:15:03.882Z,1.93
2018-12-21T03:17:31.674Z,1.37
2018-12-21T03:19:59.367Z,1.43
2018-12-21T03:22:27.128Z,1.40
2018-12-21T03:24:54.935Z,1.67
2018-12-21T03:27:22.747Z,1.30
2018-12-21T03:29:50.527Z,1.20
2018-12-21T03:32:18.205Z,1.50
2018-12-21T03:34:46.003Z,1.80
2018-12-21T03:37:13.897Z,1.63
2018-12-21T03:39:41.624Z,1.90
2018-12-21T03:42:09.367Z,2.33
2018-12-21T03:44:37.200Z,1.67
2018-12-21T03:47:05.011Z,1.30
2018-12-21T03:49:32.755Z,1.10
2018-12-21T03:52:00.627Z,1.40
2018-12-21T03:54:28.361Z,1.30
2018-12-21T03:56:56.118Z,1.60
2018-12-21T03:59:23.877Z,1.20
2018-12-21T04:01:51.664Z,1.40
2018-12-21T04:04:19.426Z,1.40
2018-12-21T04:06:47.151Z,1.43
2018-12-21T04:09:14.845Z,0.90
2018-12-21T04:11:42.579Z,1.40
2018-12-21T04:14:10.626Z,1.47
2018-12-21T04:16:38.497Z,1.73
2018-12-21T04:19:06.419Z,1.37
2018-12-21T04:21:34.416Z,1.60
2018-12-21T04:24:02.262Z,1.57
2018-12-21T04:26:30.147Z,1.77
2018-12-21T04:28:57.875Z,1.60
2018-12-21T04:31:25.607Z,1.13
2018-12-21T04:33:53.324Z,1.30
2018-12-21T04:36:21.164Z,1.00
2018-12-21T04:38:48.888Z,1.50
2018-12-21T04:41:16.639Z,1.27
2018-12-21T04:43:44.606Z,1.30
2018-12-21T04:46:12.359Z,0.90
2018-12-21T04:48:40.255Z,1.73
2018-12-21T04:51:08.649Z,1.23
2018-12-21T04:53:37.442Z,1.00
2018-12-21T04:56:05.186Z,1.07
2018-12-21T04:58:33.066Z,1.50
2018-12-21T05:01:00.822Z,1.17
2018-12-21T05:03:28.490Z,1.30
2018-12-21T05:05:56.200Z,0.83
2018-12-21T05:08:23.975Z,1.13
2018-12-21T05:10:51.669Z,1.10
2018-12-21T05:13:19.393Z,0.90
2018-12-21T05:15:47.986Z,1.03
2018-12-21T05:18:15.769Z,1.63
2018-12-21T05:20:43.592Z,0.80
2018-12-21T05:23:11.256Z,1.17
2018-12-21T05:25:38.951Z,1.23
2018-12-21T05:28:06.832Z,1.27
2018-12-21T05:30:34.550Z,1.30
2018-12-21T05:33:02.258Z,1.20
2018-12-21T05:35:29.969Z,1.10
2018-12-21T05:37:57.647Z,1.23
2018-12-21T05:40:25.613Z,1.03
2018-12-21T05:42:53.387Z,1.40
2018-12-21T05:45:21.089Z,1.40
2018-12-21T05:47:48.898Z,1.00
2018-12-21T05:50:16.669Z,1.40
2018-12-21T05:52:44.392Z,1.20
2018-12-21T05:55:12.101Z,1.63
2018-12-21T05:57:39.935Z,1.37
2018-12-21T06:00:08.702Z,1.50
2018-12-21T06:02:36.429Z,0.90
2018-12-21T06:05:05.505Z,0.90
2018-12-21T06:07:33.939Z,1.07
2018-12-21T06:10:01.654Z,0.63
2018-12-21T06:12:29.526Z,0.97
2018-12-21T06:14:57.244Z,0.70
2018-12-21T06:17:24.891Z,1.07
2018-12-21T06:19:52.659Z,0.90
2018-12-21T06:22:20.757Z,0.90
2018-12-21T06:24:48.477Z,0.70
2018-12-21T06:27:16.398Z,0.90
2018-12-21T06:29:44.125Z,0.90
2018-12-21T06:32:11.797Z,0.87
2018-12-21T06:34:39.620Z,0.80
2018-12-21T06:37:07.425Z,0.93
2018-12-21T06:39:36.007Z,0.70
2018-12-21T06:42:03.853Z,0.90
2018-12-21T06:44:31.555Z,2.93
2018-12-21T06:46:59.392Z,0.80
2018-12-21T06:49:27.738Z,0.87
2018-12-21T06:51:55.507Z,0.60
2018-12-21T06:54:23.351Z,0.70
2018-12-21T06:56:51.246Z,0.70
2018-12-21T06:59:18.968Z,0.70
2018-12-21T07:01:46.763Z,0.70
2018-12-21T07:04:14.528Z,0.60
2018-12-21T07:06:42.277Z,0.70
2018-12-21T07:09:10.307Z,0.57
2018-12-21T07:11:38.088Z,0.50
2018-12-21T07:14:05.838Z,0.60
2018-12-21T07:16:34.464Z,0.50
2018-12-21T07:19:02.291Z,0.40
2018-12-21T07:21:30.053Z,0.60
2018-12-21T07:23:57.884Z,0.50
2018-12-21T07:26:26.498Z,0.60
2018-12-21T07:28:54.329Z,0.50
2018-12-21T07:31:22.261Z,0.63
2018-12-21T07:33:50.007Z,0.73
2018-12-21T07:36:18.643Z,0.60
2018-12-21T07:38:46.517Z,0.60
2018-12-21T07:41:14.266Z,0.50
2018-12-21T07:43:42.034Z,0.53
2018-12-21T07:46:09.750Z,0.60
2018-12-21T07:48:37.641Z,0.70
2018-12-21T07:51:05.596Z,0.50
2018-12-21T07:53:35.913Z,0.93
2018-12-21T07:56:04.495Z,0.50
2018-12-21T07:58:32.345Z,0.50
2018-12-21T08:01:00.314Z,0.60
2018-12-21T08:03:28.238Z,0.50
2018-12-21T08:05:57.141Z,0.47
2018-12-21T08:08:24.909Z,0.50
2018-12-21T08:10:52.740Z,0.50
2018-12-21T08:13:20.524Z,0.50
2018-12-21T08:15:48.292Z,0.90
2018-12-21T08:18:16.113Z,0.60
2018-12-21T08:20:44.296Z,0.50
2018-12-21T08:23:12.044Z,0.50
2018-12-21T08:25:39.956Z,0.50
2018-12-21T08:28:07.849Z,0.50
2018-12-21T08:30:35.613Z,0.50
2018-12-21T08:33:03.409Z,0.50
2018-12-21T08:35:31.173Z,0.50
2018-12-21T08:37:58.907Z,0.50
2018-12-21T08:40:26.692Z,0.50
2018-12-21T08:42:54.418Z,0.40
2018-12-21T08:45:22.288Z,0.50
2018-12-21T08:47:50.150Z,0.50
2018-12-21T08:50:17.861Z,0.60
2018-12-21T08:52:45.635Z,0.40
2018-12-21T08:55:13.369Z,0.40
2018-12-21T08:57:41.224Z,0.80
2018-12-21T09:00:10.616Z,0.80
2018-12-21T09:02:38.505Z,0.67
2018-12-21T09:05:06.732Z,0.63
2018-12-21T09:07:34.461Z,0.50
2018-12-21T09:10:02.313Z,0.40
2018-12-21T09:12:30.069Z,0.50
2018-12-21T09:14:57.781Z,0.50
2018-12-21T09:17:25.515Z,0.53
2018-12-21T09:19:53.618Z,0.40
2018-12-21T09:22:21.383Z,0.60
2018-12-21T09:24:49.161Z,0.50
2018-12-21T09:27:17.103Z,0.53
2018-12-21T09:29:44.933Z,0.47
2018-12-21T09:32:12.699Z,0.50
2018-12-21T09:34:40.463Z,0.47
2018-12-21T09:37:08.242Z,0.57
2018-12-21T09:39:36.154Z,0.50
2018-12-21T09:42:04.627Z,0.53
2018-12-21T09:44:32.342Z,1.10
2018-12-21T09:47:00.150Z,1.73
2018-12-21T09:49:27.977Z,0.50
2018-12-21T09:51:56.340Z,2.17
2018-12-21T09:54:24.082Z,0.40
2018-12-21T09:56:52.170Z,0.40
2018-12-21T09:59:20.376Z,0.43
2018-12-21T10:01:48.029Z,0.50
2018-12-21T10:04:15.781Z,0.50
2018-12-21T10:06:43.583Z,0.50
2018-12-21T10:09:11.327Z,0.50
2018-12-21T10:11:39.073Z,0.50
2018-12-21T10:14:07.392Z,0.47
2018-12-21T10:16:36.364Z,0.50
2018-12-21T10:19:04.172Z,0.70
2018-12-21T10:21:31.923Z,0.70
2018-12-21T10:23:59.761Z,0.50
2018-12-21T10:26:28.373Z,0.40
2018-12-21T10:28:57.029Z,0.50
2018-12-21T10:31:25.811Z,0.50
2018-12-21T10:33:53.585Z,0.50
2018-12-21T10:36:21.434Z,0.50
2018-12-21T10:38:49.198Z,0.43
2018-12-21T10:41:17.011Z,0.40
2018-12-21T10:43:44.852Z,0.50
2018-12-21T10:46:14.290Z,0.40
2018-12-21T10:48:42.181Z,0.50
2018-12-21T10:51:13.153Z,0.50
2018-12-21T10:53:41.108Z,0.40
2018-12-21T10:56:08.929Z,0.40
2018-12-21T10:58:36.846Z,0.40
2018-12-21T11:01:04.672Z,0.60
2018-12-21T11:03:32.380Z,0.53
2018-12-21T11:06:00.481Z,0.40
2018-12-21T11:08:28.251Z,0.40
2018-12-21T11:10:56.212Z,0.40
2018-12-21T11:13:24.042Z,0.40
2018-12-21T11:15:52.149Z,0.80
2018-12-21T11:18:20.037Z,0.43
2018-12-21T11:20:48.001Z,0.40
2018-12-21T11:26:18.496Z,0.50
2018-12-21T11:28:46.661Z,0.60
2018-12-21T11:31:14.608Z,0.50
2018-12-21T11:33:42.357Z,0.60
2018-12-21T11:36:10.955Z,0.60
2018-12-21T11:38:38.641Z,0.60
2018-12-21T11:41:06.474Z,0.47
2018-12-21T11:43:35.355Z,0.50
2018-12-21T11:46:03.579Z,0.50
2018-12-21T11:48:32.366Z,0.40
2018-12-21T11:51:00.099Z,0.60
2018-12-21T11:53:27.960Z,0.57
2018-12-21T11:55:56.454Z,0.70
2018-12-21T11:58:24.208Z,1.00
2018-12-21T12:00:52.020Z,0.93
2018-12-21T12:03:19.777Z,0.80
2018-12-21T12:05:47.497Z,0.93
2018-12-21T12:08:15.276Z,0.77
2018-12-21T12:10:42.956Z,0.97
2018-12-21T12:13:10.764Z,0.90
2018-12-21T12:15:38.442Z,1.10
2018-12-21T12:18:06.278Z,1.03
2018-12-21T12:20:33.981Z,0.90
2018-12-21T12:23:01.855Z,1.50
2018-12-21T12:25:29.947Z,1.37
2018-12-21T12:27:57.776Z,1.30
2018-12-21T12:30:26.092Z,1.23
2018-12-21T12:32:53.840Z,1.30
2018-12-21T12:35:21.704Z,1.10
2018-12-21T12:37:49.587Z,1.17
2018-12-21T12:40:17.376Z,1.40
2018-12-21T12:42:45.059Z,1.90
2018-12-21T12:45:13.273Z,1.27
2018-12-21T12:47:40.980Z,1.13
2018-12-21T12:50:08.760Z,1.40
2018-12-21T12:52:36.579Z,1.10
2018-12-21T12:55:05.364Z,1.07
2018-12-21T12:57:33.194Z,1.40
2018-12-21T13:00:00.931Z,1.17
2018-12-21T13:02:30.736Z,0.90
2018-12-21T13:04:59.114Z,0.90
2018-12-21T13:07:27.110Z,0.90
2018-12-21T13:09:54.817Z,0.80
2018-12-21T13:12:22.551Z,0.70
2018-12-21T13:14:50.501Z,0.60
2018-12-21T13:17:18.227Z,0.70
2018-12-21T13:19:46.072Z,0.70
2018-12-21T13:22:14.128Z,1.53
2018-12-21T13:24:41.945Z,0.80
2018-12-21T13:27:09.827Z,0.83
2018-12-21T13:29:37.667Z,0.90
2018-12-21T13:32:08.631Z,1.27
2018-12-21T13:34:36.537Z,1.50
2018-12-21T13:37:04.803Z,1.50
2018-12-21T13:39:32.640Z,1.40
2018-12-21T13:42:00.386Z,1.57
2018-12-21T13:44:28.516Z,1.47
2018-12-21T13:46:56.909Z,1.57
2018-12-21T13:49:24.736Z,1.60
2018-12-21T13:51:53.084Z,1.00
2018-12-21T13:54:20.962Z,1.47
2018-12-21T13:56:48.731Z,1.23
2018-12-21T13:59:16.612Z,1.53
2018-12-21T14:01:44.546Z,1.00
2018-12-21T14:04:12.288Z,1.00
2018-12-21T14:06:40.085Z,0.90
2018-12-21T14:09:08.065Z,1.20
2018-12-21T14:11:35.943Z,1.10
2018-12-21T14:14:03.746Z,0.93
2018-12-21T14:16:31.649Z,1.10
2018-12-21T14:18:59.501Z,1.33
2018-12-21T14:21:27.566Z,1.30
2018-12-21T14:23:55.284Z,1.30
2018-12-21T14:26:22.981Z,1.47
2018-12-21T14:28:50.749Z,1.40
2018-12-21T14:31:18.890Z,1.40
2018-12-21T14:33:46.992Z,1.30
2018-12-21T14:36:14.763Z,1.70
2018-12-21T14:38:42.515Z,1.90
2018-12-21T14:41:10.504Z,1.70
2018-12-21T14:43:38.472Z,1.80
2018-12-21T14:46:06.250Z,1.57
2018-12-21T14:48:34.122Z,1.40
2018-12-21T14:51:01.851Z,1.00
2018-12-21T14:53:29.877Z,1.47
2018-12-21T14:55:57.601Z,1.40
2018-12-21T14:58:25.350Z,1.17
2018-12-21T15:00:53.317Z,1.27
2018-12-21T15:03:21.241Z,1.30
2018-12-21T15:05:49.065Z,2.00
2018-12-21T15:08:17.428Z,1.10
2018-12-21T15:10:45.537Z,1.33
2018-12-21T15:13:13.358Z,1.20
2018-12-21T15:15:41.860Z,1.73
2018-12-21T15:18:09.607Z,1.87
2018-12-21T15:20:37.343Z,2.50
2018-12-21T15:23:05.133Z,1.77
2018-12-21T15:25:32.903Z,2.50
2018-12-21T15:28:00.702Z,2.33
2018-12-21T15:30:30.725Z,2.33
2018-12-21T15:32:58.509Z,2.97
2018-12-21T15:35:26.353Z,2.73
2018-12-21T15:37:54.269Z,2.50
2018-12-21T15:40:22.114Z,2.87
2018-12-21T15:42:51.702Z,3.67
2018-12-21T15:45:19.734Z,3.83
2018-12-21T15:47:47.550Z,2.80
2018-12-21T15:50:15.322Z,3.80
2018-12-21T15:52:43.406Z,3.50
2018-12-21T15:55:11.191Z,2.20
2018-12-21T15:57:39.105Z,3.63
2018-12-21T16:00:10.119Z,2.80
2018-12-21T16:02:37.925Z,3.00
2018-12-21T16:05:07.191Z,3.00
2018-12-21T16:07:35.062Z,3.20
2018-12-21T16:10:03.869Z,3.30
2018-12-21T16:12:32.014Z,5.23
2018-12-21T16:14:59.726Z,3.20
2018-12-21T16:17:27.646Z,3.23
2018-12-21T16:19:55.633Z,4.43
2018-12-21T16:22:26.280Z,4.17
2018-12-21T16:24:54.038Z,4.63
2018-12-21T16:27:21.806Z,4.60
2018-12-21T16:29:49.894Z,3.40
2018-12-21T16:32:17.668Z,4.70
2018-12-21T16:34:45.412Z,3.57
2018-12-21T16:37:13.260Z,3.50
2018-12-21T16:39:41.388Z,5.13
2018-12-21T16:42:09.347Z,3.50
2018-12-21T16:44:37.355Z,3.90
2018-12-21T16:47:05.197Z,3.70
2018-12-21T16:49:32.922Z,4.57
2018-12-21T16:52:00.684Z,4.87
2018-12-21T16:54:28.440Z,5.00
2018-12-21T16:56:56.364Z,4.50
2018-12-21T16:59:24.126Z,5.83
2018-12-21T17:01:52.527Z,5.40
2018-12-21T17:04:20.264Z,4.33
2018-12-21T17:06:48.028Z,4.40
2018-12-21T17:09:15.734Z,5.77
2018-12-21T17:11:44.723Z,5.97
2018-12-21T17:14:12.671Z,6.30
2018-12-21T17:16:40.369Z,5.13
2018-12-21T17:19:08.632Z,7.07
2018-12-21T17:21:36.456Z,4.93
2018-12-21T17:24:04.291Z,5.90
2018-12-21T17:26:32.336Z,7.67
2018-12-21T17:29:01.084Z,7.17
2018-12-21T17:31:29.500Z,5.50
2018-12-21T17:33:57.298Z,5.60
2018-12-21T17:36:24.951Z,5.43
2018-12-21T17:38:52.791Z,5.23
2018-12-21T17:41:20.641Z,3.20
2018-12-21T17:43:48.509Z,3.90
2018-12-21T17:46:16.399Z,4.97
2018-12-21T17:48:44.266Z,2.83
2018-12-21T17:51:12.173Z,3.80
2018-12-21T17:53:40.001Z,3.60
2018-12-21T17:56:07.994Z,4.67
2018-12-21T17:58:35.910Z,3.73
2018-12-21T18:01:04.291Z,4.17
2018-12-21T18:03:32.365Z,4.73
2018-12-21T18:06:01.971Z,3.37
2018-12-21T18:08:29.696Z,3.50
2018-12-21T18:10:57.664Z,2.63
2018-12-21T18:13:25.376Z,2.83
2018-12-21T18:15:53.144Z,3.90
2018-12-21T18:18:25.214Z,3.90
2018-12-21T18:20:51.035Z,2.33
2018-12-21T18:23:18.762Z,3.57
2018-12-21T18:25:46.451Z,3.20
2018-12-21T18:28:17.756Z,2.90
2018-12-21T18:30:46.630Z,2.63
2018-12-21T18:33:14.533Z,3.67
2018-12-21T18:35:42.198Z,4.17
2018-12-21T18:38:10.149Z,2.87
2018-12-21T18:40:37.917Z,3.33
2018-12-21T18:43:05.945Z,3.87
2018-12-21T18:45:33.701Z,3.60
2018-12-21T18:48:01.429Z,4.33
2018-12-21T18:50:29.306Z,4.30
2018-12-21T18:52:57.041Z,3.97
2018-12-21T18:55:24.826Z,4.47
2018-12-21T18:57:52.722Z,4.40
2018-12-21T19:00:20.604Z,4.90
2018-12-21T19:02:48.423Z,5.07
2018-12-21T19:05:16.246Z,4.80
2018-12-21T19:07:43.934Z,3.60
2018-12-21T19:10:11.829Z,4.90
2018-12-21T19:12:39.566Z,4.73
2018-12-21T19:15:07.849Z,4.27
2018-12-21T19:17:35.629Z,4.33
2018-12-21T19:20:06.130Z,5.27
2018-12-21T19:22:33.897Z,4.97
2018-12-21T19:25:01.745Z,5.07
2018-12-21T19:27:29.570Z,5.50
2018-12-21T19:29:57.442Z,4.67
2018-12-21T19:32:25.328Z,7.07
2018-12-21T19:34:53.095Z,5.47
2018-12-21T19:37:20.961Z,5.27
2018-12-21T19:39:48.920Z,5.30
2018-12-21T19:42:16.669Z,5.67
2018-12-21T19:44:44.418Z,4.30
2018-12-21T19:47:12.188Z,6.20
2018-12-21T19:49:40.003Z,5.57
2018-12-21T19:52:08.862Z,6.30
2018-12-21T19:54:36.619Z,5.43
2018-12-21T19:57:05.306Z,4.77
2018-12-21T19:59:32.975Z,6.40
2018-12-21T20:02:00.694Z,4.70
2018-12-21T20:04:28.570Z,5.63
2018-12-21T20:06:56.977Z,5.07
2018-12-21T20:09:24.752Z,5.50
2018-12-21T20:11:52.561Z,4.70
2018-12-21T20:14:20.596Z,6.53
2018-12-21T20:16:48.449Z,5.70
2018-12-21T20:19:16.689Z,6.40
2018-12-21T20:21:44.500Z,5.87
2018-12-21T20:24:12.296Z,4.77
2018-12-21T20:26:42.297Z,5.20
2018-12-21T20:29:09.986Z,5.50
2018-12-21T20:31:37.993Z,5.87
2018-12-21T20:34:05.873Z,5.93
2018-12-21T20:36:33.805Z,6.43
2018-12-21T20:39:01.529Z,5.67
2018-12-21T20:41:29.254Z,5.87
2018-12-21T20:43:57.076Z,6.87
2018-12-21T20:46:24.824Z,4.77
2018-12-21T20:48:53.649Z,5.63
2018-12-21T20:51:23.435Z,4.70
2018-12-21T20:53:50.954Z,6.00
2018-12-21T20:56:18.898Z,6.50
2018-12-21T20:58:47.031Z,6.60
2018-12-21T21:01:14.955Z,5.17
2018-12-21T21:03:42.879Z,6.30
2018-12-21T21:06:10.669Z,7.13
2018-12-21T21:08:38.460Z,6.80
2018-12-21T21:11:06.285Z,6.00
2018-12-21T21:13:34.170Z,5.60
2018-12-21T21:16:02.204Z,5.00
2018-12-21T21:18:30.619Z,7.90
2018-12-21T21:20:58.477Z,5.30
2018-12-21T21:23:26.494Z,4.67
2018-12-21T21:25:54.317Z,6.57
2018-12-21T21:28:23.051Z,5.90
2018-12-21T21:30:51.034Z,5.63
2018-12-21T21:33:18.809Z,6.57
2018-12-21T21:35:46.658Z,5.83
2018-12-21T21:38:14.388Z,5.50
2018-12-21T21:40:42.118Z,5.27
2018-12-21T21:43:09.885Z,5.90
2018-12-21T21:45:37.632Z,6.00
2018-12-21T21:48:05.915Z,6.23
2018-12-21T21:50:33.670Z,4.77
2018-12-21T21:53:01.493Z,5.70
2018-12-21T21:55:29.259Z,4.97
2018-12-21T21:57:57.203Z,5.93
2018-12-21T22:00:24.952Z,7.60
2018-12-21T22:02:52.686Z,6.23
2018-12-21T22:05:20.520Z,6.00
2018-12-21T22:07:48.291Z,6.53
2018-12-21T22:10:15.952Z,6.80
2018-12-21T22:12:43.642Z,6.87
2018-12-21T22:15:11.346Z,7.03
2018-12-21T22:17:39.256Z,7.50
2018-12-21T22:20:08.586Z,8.43
2018-12-21T22:22:36.360Z,7.27
2018-12-21T22:25:04.402Z,6.60
2018-12-21T22:27:32.094Z,7.93
2018-12-21T22:30:00.543Z,7.87
2018-12-21T22:32:28.361Z,7.83
2018-12-21T22:34:56.204Z,7.47
2018-12-21T22:37:24.558Z,8.07
2018-12-21T22:39:52.374Z,9.50
2018-12-21T22:42:22.286Z,9.13
2018-12-21T22:44:50.264Z,8.73
2018-12-21T22:47:17.942Z,8.30
2018-12-21T22:49:45.738Z,8.73
2018-12-21T22:52:13.424Z,8.47
2018-12-21T22:54:41.110Z,9.13
2018-12-21T22:57:08.843Z,7.63
2018-12-21T22:59:36.525Z,8.43
2018-12-21T23:02:05.105Z,9.30
2018-12-21T23:04:32.967Z,7.67
2018-12-21T23:07:00.771Z,9.90
2018-12-21T23:09:28.436Z,9.73
2018-12-21T23:11:56.571Z,7.80
2018-12-21T23:14:24.200Z,7.97
2018-12-21T23:16:51.917Z,8.67
2018-12-21T23:19:19.670Z,8.07
2018-12-21T23:21:47.440Z,8.10
2018-12-21T23:24:15.182Z,8.93
2018-12-21T23:26:42.840Z,7.17
2018-12-21T23:29:10.728Z,7.60
2018-12-21T23:31:38.694Z,9.17
2018-12-21T23:34:06.767Z,7.30
2018-12-21T23:36:34.510Z,7.50
2018-12-21T23:39:02.454Z,8.20
2018-12-21T23:41:31.147Z,9.87
2018-12-21T23:44:00.912Z,8.70
2018-12-21T23:46:28.580Z,8.40
2018-12-21T23:48:56.283Z,8.00
2018-12-21T23:51:24.204Z,8.40
2018-12-21T23:53:51.990Z,10.00
2018-12-21T23:56:20.608Z,8.53
2018-12-21T23:58:48.337Z,9.83
